createdAt,value
2023-01-11T00:01:10.989Z,93026.53
2023-01-11T00:03:37.840Z,93024.94
2023-01-11T00:06:05.025Z,93029.63
2023-01-11T00:08:34.138Z,93032.16
2023-01-11T00:11:02.446Z,93027.34
2023-01-11T00:13:30.409Z,93024.03
2023-01-11T00:15:57.571Z,93023.75
2023-01-11T00:18:24.491Z,93030.31
2023-01-11T00:20:51.364Z,93037.25
2023-01-11T00:23:18.242Z,93030.03
2023-01-11T00:25:45.158Z,93040.44
2023-01-11T00:28:11.939Z,93043.81
2023-01-11T00:30:39.065Z,93046.75
2023-01-11T00:33:11.375Z,93056.66
2023-01-11T00:35:38.335Z,93051.03
2023-01-11T00:38:05.167Z,93049.13
2023-01-11T00:40:32.172Z,93046.03
2023-01-11T00:43:23.355Z,93049.88
2023-01-11T00:46:08.845Z,93050.72
2023-01-11T00:48:35.723Z,93050.84
2023-01-11T00:51:02.652Z,93046.28
2023-01-11T00:53:29.526Z,93054.31
2023-01-11T00:55:56.304Z,93051.66
2023-01-11T00:58:29.137Z,93055.00
2023-01-11T01:00:56.145Z,93045.78
2023-01-11T01:03:26.328Z,93052.44
2023-01-11T01:05:57.249Z,93059.50
2023-01-11T01:08:24.133Z,93059.63
2023-01-11T01:10:54.275Z,93060.03
2023-01-11T01:13:56.411Z,93060.97
2023-01-11T01:16:23.433Z,93064.81
2023-01-11T01:18:52.375Z,93063.34
2023-01-11T01:21:21.864Z,93063.34
2023-01-11T01:23:48.959Z,93068.25
2023-01-11T01:26:18.578Z,93064.53
2023-01-11T01:28:54.699Z,93069.84
2023-01-11T01:31:21.767Z,93069.75
2023-01-11T01:33:48.903Z,93067.56
2023-01-11T01:36:15.952Z,93071.03
2023-01-11T01:38:43.152Z,93066.09
2023-01-11T01:41:12.528Z,93068.38
2023-01-11T01:43:52.179Z,93079.88
2023-01-11T01:46:20.821Z,93076.66
2023-01-11T01:48:57.742Z,93082.28
2023-01-11T01:51:31.004Z,93083.31
2023-01-11T01:54:07.326Z,93081.97
2023-01-11T01:56:48.850Z,93071.41
2023-01-11T01:59:32.160Z,93075.13
2023-01-11T02:01:59.821Z,93075.81
2023-01-11T02:04:30.058Z,93086.72
2023-01-11T02:07:20.342Z,93083.91
2023-01-11T02:10:08.174Z,93079.72
2023-01-11T02:12:39.280Z,93082.38
2023-01-11T02:15:08.571Z,93087.31
2023-01-11T02:17:37.713Z,93100.56
2023-01-11T02:20:09.695Z,93104.66
2023-01-11T02:22:48.830Z,93112.16
2023-01-11T02:25:34.544Z,93116.03
2023-01-11T02:28:28.318Z,93126.88
2023-01-11T02:31:17.255Z,93134.19
2023-01-11T02:34:26.874Z,93127.91
2023-01-11T02:37:12.947Z,93149.56
2023-01-11T02:40:15.150Z,93146.59
2023-01-11T02:43:12.911Z,93142.91
2023-01-11T02:45:51.140Z,93146.63
2023-01-11T02:48:29.087Z,93148.44
2023-01-11T02:51:11.331Z,93154.53
2023-01-11T02:53:48.612Z,93164.41
2023-01-11T02:56:27.009Z,93164.47
2023-01-11T02:58:55.848Z,93165.84
2023-01-11T03:01:23.566Z,93159.25
2023-01-11T03:03:51.197Z,93156.97
2023-01-11T03:06:35.000Z,93157.69
2023-01-11T03:09:05.085Z,93157.31
2023-01-11T03:12:20.174Z,93153.88
2023-01-11T03:14:59.501Z,93159.38
2023-01-11T03:17:35.953Z,93155.78
2023-01-11T03:20:28.962Z,93150.78
2023-01-11T03:23:05.310Z,93155.47
2023-01-11T03:25:50.708Z,93148.56
2023-01-11T03:28:32.821Z,93137.38
2023-01-11T03:31:08.149Z,93144.25
2023-01-11T03:33:52.996Z,93141.63
2023-01-11T03:36:21.906Z,93141.94
2023-01-11T03:38:56.297Z,93142.50
2023-01-11T03:41:26.781Z,93140.28
2023-01-11T03:43:54.706Z,93145.78
2023-01-11T03:46:28.848Z,93148.97
2023-01-11T03:49:02.713Z,93147.94
2023-01-11T03:51:52.353Z,93153.69
2023-01-11T03:54:25.212Z,93162.06
2023-01-11T03:57:04.804Z,93163.84
2023-01-11T03:59:35.674Z,93163.44
2023-01-11T04:02:03.020Z,93163.56
2023-01-11T04:04:30.020Z,93167.94
2023-01-11T04:06:57.224Z,93170.09
2023-01-11T04:09:24.468Z,93170.00
2023-01-11T04:11:53.925Z,93175.03
2023-01-11T04:14:21.028Z,93168.59
2023-01-11T04:16:47.985Z,93175.41
2023-01-11T04:19:14.996Z,93183.94
2023-01-11T04:21:42.063Z,93186.34
2023-01-11T04:24:09.400Z,93200.31
2023-01-11T04:26:36.534Z,93193.16
2023-01-11T04:29:05.982Z,93199.56
2023-01-11T04:31:33.505Z,93200.00
2023-01-11T04:34:00.796Z,93201.72
2023-01-11T04:36:32.350Z,93207.06
2023-01-11T04:38:59.766Z,93211.66
2023-01-11T04:41:47.768Z,93209.50
2023-01-11T04:44:14.846Z,93211.34
2023-01-11T04:46:45.861Z,93212.25
2023-01-11T04:49:15.354Z,93218.75
2023-01-11T04:51:42.418Z,93213.69
2023-01-11T04:54:09.514Z,93218.66
2023-01-11T04:56:36.551Z,93214.72
2023-01-11T04:59:05.702Z,93219.25
2023-01-11T05:01:32.764Z,93230.63
2023-01-11T05:04:00.061Z,93224.94
2023-01-11T05:06:27.239Z,93234.97
2023-01-11T05:08:54.471Z,93236.56
2023-01-11T05:11:21.625Z,93234.69
2023-01-11T05:13:54.297Z,93243.91
2023-01-11T05:16:32.222Z,93250.88
2023-01-11T05:19:05.127Z,93247.25
2023-01-11T05:21:39.578Z,93249.31
2023-01-11T05:24:12.436Z,93245.97
2023-01-11T05:26:44.080Z,93248.34
2023-01-11T05:29:13.843Z,93246.28
2023-01-11T05:31:41.284Z,93248.13
2023-01-11T05:34:10.719Z,93251.78
2023-01-11T05:36:37.893Z,93252.22
2023-01-11T05:41:46.594Z,93249.88
2023-01-11T05:44:32.579Z,93257.00
2023-01-11T05:46:59.809Z,93260.78
2023-01-11T05:49:28.898Z,93264.78
2023-01-11T05:51:58.085Z,93269.56
2023-01-11T05:54:26.142Z,93270.22
2023-01-11T05:56:53.148Z,93267.84
2023-01-11T05:59:20.393Z,93275.44
2023-01-11T06:01:47.938Z,93270.09
2023-01-11T06:04:16.934Z,93270.09
2023-01-11T06:06:51.462Z,93279.41
2023-01-11T06:09:18.681Z,93287.34
2023-01-11T06:11:45.864Z,93287.09
2023-01-11T06:14:12.886Z,93292.97
2023-01-11T06:16:43.410Z,93292.88
2023-01-11T06:19:17.070Z,93300.59
2023-01-11T06:21:44.282Z,93313.91
2023-01-11T06:24:11.375Z,93310.00
2023-01-11T06:26:44.823Z,93323.81
2023-01-11T06:29:12.137Z,93331.22
2023-01-11T06:31:40.589Z,93328.00
2023-01-11T06:34:07.792Z,93332.50
2023-01-11T06:36:38.236Z,93340.13
2023-01-11T06:39:07.868Z,93338.72
2023-01-11T06:41:35.011Z,93334.75
2023-01-11T06:44:03.407Z,93331.88
2023-01-11T06:46:30.596Z,93333.84
2023-01-11T06:48:57.960Z,93336.81
2023-01-11T06:51:25.094Z,93340.16
2023-01-11T06:53:52.288Z,93340.38
2023-01-11T06:56:23.721Z,93338.16
2023-01-11T06:58:52.433Z,93350.81
2023-01-11T07:01:19.775Z,93361.59
2023-01-11T07:03:48.464Z,93360.59
2023-01-11T07:06:15.562Z,93363.56
2023-01-11T07:08:42.921Z,93362.84
2023-01-11T07:11:10.048Z,93371.81
2023-01-11T07:13:37.032Z,93374.28
2023-01-11T07:16:04.313Z,93369.19
2023-01-11T07:18:31.944Z,93383.72
2023-01-11T07:21:05.482Z,93379.72
2023-01-11T07:23:32.568Z,93385.13
2023-01-11T07:25:59.828Z,93382.63
2023-01-11T07:28:28.611Z,93381.56
2023-01-11T07:30:59.215Z,93380.56
2023-01-11T07:33:31.687Z,93378.59
2023-01-11T07:36:00.885Z,93380.78
2023-01-11T07:38:30.731Z,93389.03
2023-01-11T07:40:57.723Z,93387.84
2023-01-11T07:43:24.662Z,93384.81
2023-01-11T07:45:55.174Z,93385.06
2023-01-11T07:48:26.918Z,93392.31
2023-01-11T07:50:54.471Z,93393.66
2023-01-11T07:53:22.199Z,93390.59
2023-01-11T07:55:51.493Z,93396.78
2023-01-11T07:58:18.575Z,93405.75
2023-01-11T08:00:46.387Z,93405.34
2023-01-11T08:03:13.725Z,93413.91
2023-01-11T08:05:43.253Z,93424.59
2023-01-11T08:08:10.392Z,93419.09
2023-01-11T08:10:38.001Z,93430.84
2023-01-11T08:13:35.169Z,93434.59
2023-01-11T08:16:02.484Z,93445.03
2023-01-11T08:18:29.589Z,93443.66
2023-01-11T08:20:56.621Z,93446.31
2023-01-11T08:23:23.907Z,93454.34
2023-01-11T08:26:00.036Z,93459.56
2023-01-11T08:28:28.531Z,93464.41
2023-01-11T08:30:55.696Z,93466.72
2023-01-11T08:33:26.694Z,93468.34
2023-01-11T08:35:54.099Z,93468.22
2023-01-11T08:38:37.238Z,93475.41
2023-01-11T08:41:31.296Z,93480.28
2023-01-11T08:44:05.624Z,93480.38
2023-01-11T08:46:35.556Z,93475.72
2023-01-11T08:49:12.442Z,93478.03
2023-01-11T08:51:40.681Z,93485.00
2023-01-11T08:54:17.954Z,93490.22
2023-01-11T08:56:51.647Z,93488.22
2023-01-11T08:59:22.132Z,93491.84
2023-01-11T09:01:49.539Z,93498.84
2023-01-11T09:04:24.780Z,93497.63
2023-01-11T09:06:55.449Z,93498.56
2023-01-11T09:09:22.976Z,93505.41
2023-01-11T09:11:57.348Z,93501.91
2023-01-11T09:14:28.272Z,93496.97
2023-01-11T09:16:56.422Z,93497.09
2023-01-11T09:19:23.897Z,93498.59
2023-01-11T09:21:51.984Z,93496.19
2023-01-11T09:24:19.385Z,93499.56
2023-01-11T09:26:46.757Z,93497.16
2023-01-11T09:29:14.401Z,93495.84
2023-01-11T09:31:41.738Z,93498.94
2023-01-11T09:34:11.298Z,93498.69
2023-01-11T09:36:40.395Z,93501.50
2023-01-11T09:39:10.739Z,93505.50
2023-01-11T09:42:00.592Z,93500.94
2023-01-11T09:44:29.945Z,93503.09
2023-01-11T09:47:12.655Z,93505.63
2023-01-11T09:49:45.194Z,93504.44
2023-01-11T09:52:24.541Z,93500.41
2023-01-11T09:54:51.908Z,93502.03
2023-01-11T09:57:34.418Z,93503.66
2023-01-11T10:00:09.966Z,93506.84
2023-01-11T10:02:50.208Z,93511.41
2023-01-11T10:05:36.806Z,93511.69
2023-01-11T10:18:25.382Z,93507.66
2023-01-11T10:18:26.625Z,93515.59
2023-01-11T10:21:11.249Z,93512.09
2023-01-11T10:23:55.441Z,93517.97
2023-01-11T10:26:29.389Z,93514.38
2023-01-11T10:29:19.814Z,93507.25
2023-01-11T10:32:43.764Z,93504.47
2023-01-11T10:35:52.081Z,93508.75
2023-01-11T10:38:56.331Z,93506.22
2023-01-11T10:42:00.200Z,93504.31
2023-01-11T10:44:39.181Z,93499.38
2023-01-11T10:47:16.650Z,93503.38
2023-01-11T10:50:06.205Z,93502.19
2023-01-11T10:52:48.147Z,93497.75
2023-01-11T10:55:23.264Z,93495.09
2023-01-11T10:58:19.891Z,93491.44
2023-01-11T11:01:17.325Z,93495.22
2023-01-11T11:04:20.573Z,93498.28
2023-01-11T11:06:55.478Z,93493.19
2023-01-11T11:09:42.605Z,93493.72
2023-01-11T11:12:19.008Z,93486.63
2023-01-11T11:14:52.701Z,93490.75
2023-01-11T11:17:28.990Z,93493.69
2023-01-11T11:19:59.060Z,93488.63
2023-01-11T11:22:29.323Z,93488.06
2023-01-11T11:25:02.090Z,93490.75
2023-01-11T11:27:41.825Z,93491.72
2023-01-11T11:30:14.377Z,93489.41
2023-01-11T11:32:54.686Z,93491.44
2023-01-11T11:35:38.344Z,93496.66
2023-01-11T11:38:06.110Z,93495.59
2023-01-11T11:40:35.134Z,93492.22
2023-01-11T11:43:23.099Z,93512.22
2023-01-11T11:45:54.506Z,93508.75
2023-01-11T11:48:22.611Z,93514.50
2023-01-11T11:50:50.143Z,93509.81
2023-01-11T11:53:29.712Z,93512.66
2023-01-11T11:55:58.914Z,93520.16
2023-01-11T11:58:26.741Z,93515.47
2023-01-11T12:00:54.107Z,93514.00
2023-01-11T12:03:22.301Z,93517.63
2023-01-11T12:05:51.274Z,93520.16
2023-01-11T12:08:24.798Z,93514.91
2023-01-11T12:11:01.105Z,93517.22
2023-01-11T12:13:33.621Z,93516.66
2023-01-11T12:16:03.303Z,93515.72
2023-01-11T12:18:41.554Z,93514.78
2023-01-11T12:21:14.642Z,93516.13
2023-01-11T12:23:41.754Z,93514.50
2023-01-11T12:26:15.403Z,93526.44
2023-01-11T12:29:00.789Z,93525.78
2023-01-11T12:31:42.938Z,93527.94
2023-01-11T12:34:23.528Z,93519.47
2023-01-11T12:37:23.410Z,93537.16
2023-01-11T12:39:58.274Z,93530.16
2023-01-11T12:42:48.189Z,93537.28
2023-01-11T12:45:45.740Z,93532.41
2023-01-11T12:48:36.018Z,93539.28
2023-01-11T12:51:24.353Z,93543.28
2023-01-11T12:54:04.319Z,93546.13
2023-01-11T12:57:08.537Z,93544.78
2023-01-11T12:59:41.478Z,93540.72
2023-01-11T13:02:22.082Z,93552.53
2023-01-11T13:05:06.819Z,93553.72
2023-01-11T13:07:49.083Z,93557.63
2023-01-11T13:10:40.353Z,93550.53
2023-01-11T13:13:22.743Z,93556.84
2023-01-11T13:15:53.664Z,93558.84
2023-01-11T13:18:29.807Z,93568.38
2023-01-11T13:21:18.723Z,93570.25
2023-01-11T13:24:16.025Z,93571.22
2023-01-11T13:26:45.729Z,93565.59
2023-01-11T13:29:25.136Z,93563.13
2023-01-11T13:31:54.515Z,93565.09
2023-01-11T13:34:52.652Z,93567.28
2023-01-11T13:37:44.679Z,93572.50
2023-01-11T13:40:29.615Z,93572.09
2023-01-11T13:43:00.181Z,93570.88
2023-01-11T13:45:40.738Z,93582.00
2023-01-11T13:48:25.868Z,93572.72
2023-01-11T13:51:05.200Z,93576.19
2023-01-11T13:53:37.224Z,93576.31
2023-01-11T13:56:19.204Z,93592.38
2023-01-11T13:58:56.450Z,93586.75
2023-01-11T14:01:44.211Z,93586.88
2023-01-11T14:04:23.432Z,93588.34
2023-01-11T14:07:08.476Z,93586.75
2023-01-11T14:10:00.810Z,93587.34
2023-01-11T14:12:33.825Z,93584.63
2023-01-11T14:15:03.744Z,93582.19
2023-01-11T14:17:42.472Z,93575.88
2023-01-11T14:20:20.962Z,93583.38
2023-01-11T14:23:07.770Z,93581.34
2023-01-11T14:25:52.920Z,93587.66
2023-01-11T14:28:31.227Z,93587.06
2023-01-11T14:31:04.087Z,93592.91
2023-01-11T14:33:52.283Z,93596.56
2023-01-11T14:36:44.308Z,93596.59
2023-01-11T14:39:24.017Z,93603.66
2023-01-11T14:42:31.047Z,93602.19
2023-01-11T14:45:22.636Z,93600.72
2023-01-11T14:48:13.931Z,93608.25
2023-01-11T14:51:16.099Z,93622.72
2023-01-11T14:53:47.965Z,93613.47
2023-01-11T14:56:42.910Z,93617.34
2023-01-11T14:59:31.715Z,93626.78
2023-01-11T15:02:04.890Z,93623.78
2023-01-11T15:04:38.672Z,93630.28
2023-01-11T15:07:24.627Z,93632.31
2023-01-11T15:09:54.250Z,93636.06
2023-01-11T15:12:24.297Z,93636.59
2023-01-11T15:15:12.917Z,93632.81
2023-01-11T15:17:59.493Z,93642.56
2023-01-11T15:20:26.892Z,93651.81
2023-01-11T15:23:01.960Z,93645.25
2023-01-11T15:25:33.783Z,93646.88
2023-01-11T15:28:25.413Z,93648.78
2023-01-11T15:30:52.780Z,93653.06
2023-01-11T15:33:19.909Z,93649.16
2023-01-11T15:35:56.141Z,93647.66
2023-01-11T15:38:45.467Z,93652.63
2023-01-11T15:41:36.573Z,93648.84
2023-01-11T15:44:22.101Z,93652.19
2023-01-11T15:47:15.195Z,93647.59
2023-01-11T15:50:21.195Z,93646.66
2023-01-11T15:53:23.549Z,93654.28
2023-01-11T15:56:08.410Z,93659.44
2023-01-11T15:58:57.176Z,93660.69
2023-01-11T16:01:26.620Z,93673.84
2023-01-11T16:04:05.683Z,93678.78
2023-01-11T16:06:37.012Z,93681.09
2023-01-11T16:09:15.310Z,93672.34
2023-01-11T16:11:51.323Z,93679.84
2023-01-11T16:14:42.682Z,93675.44
2023-01-11T16:17:14.255Z,93684.13
2023-01-11T16:19:44.177Z,93686.78
2023-01-11T16:22:19.654Z,93690.59
2023-01-11T16:24:49.638Z,93695.66
2023-01-11T16:27:24.434Z,93698.31
2023-01-11T16:29:52.074Z,93693.38
2023-01-11T16:32:27.286Z,93697.50
2023-01-11T16:34:55.299Z,93694.41
2023-01-11T16:37:25.456Z,93704.47
2023-01-11T16:39:55.461Z,93702.19
2023-01-11T16:42:22.738Z,93708.56
2023-01-11T16:45:14.967Z,93707.03
2023-01-11T16:47:42.113Z,93706.50
2023-01-11T16:50:20.307Z,93717.47
2023-01-11T16:52:55.905Z,93716.09
2023-01-11T16:55:27.365Z,93716.53
2023-01-11T16:57:57.978Z,93718.63
2023-01-11T17:00:34.524Z,93718.75
2023-01-11T17:03:06.635Z,93725.31
2023-01-11T17:05:40.663Z,93725.19
2023-01-11T17:08:52.648Z,93729.25
2023-01-11T17:11:31.258Z,93728.44
2023-01-11T17:14:27.288Z,93728.81
2023-01-11T17:17:00.530Z,93735.38
2023-01-11T17:19:29.956Z,93728.81
2023-01-11T17:22:09.032Z,93738.38
2023-01-11T17:25:02.470Z,93728.00
2023-01-11T17:27:38.419Z,93733.91
2023-01-11T17:30:14.979Z,93742.06
2023-01-11T17:32:44.706Z,93741.03
2023-01-11T17:35:17.994Z,93739.53
2023-01-11T17:37:45.811Z,93749.38
2023-01-11T17:40:21.319Z,93746.00
2023-01-11T17:43:10.151Z,93753.78
2023-01-11T17:45:39.502Z,93754.91
2023-01-11T17:48:14.625Z,93763.59
2023-01-11T17:50:49.772Z,93761.97
2023-01-11T17:53:21.548Z,93755.72
2023-01-11T17:55:52.795Z,93752.63
2023-01-11T17:58:22.013Z,93757.81
2023-01-11T18:01:15.473Z,93763.34
2023-01-11T18:03:57.169Z,93766.50
2023-01-11T18:06:35.288Z,93756.44
2023-01-11T18:09:16.409Z,93758.72
2023-01-11T18:11:43.489Z,93762.88
2023-01-11T18:14:28.277Z,93760.25
2023-01-11T18:17:03.387Z,93755.28
2023-01-11T18:19:39.065Z,93758.06
2023-01-11T18:22:25.769Z,93760.72
2023-01-11T18:24:53.940Z,93759.44
2023-01-11T18:27:28.281Z,93764.78
2023-01-11T18:29:56.915Z,93761.41
2023-01-11T18:32:24.121Z,93761.88
2023-01-11T18:34:53.551Z,93759.69
2023-01-11T18:37:20.909Z,93760.34
2023-01-11T18:39:48.743Z,93765.44
2023-01-11T18:42:21.940Z,93774.13
2023-01-11T18:44:49.668Z,93765.13
2023-01-11T18:47:25.024Z,93759.78
2023-01-11T18:49:52.188Z,93762.44
2023-01-11T18:52:23.646Z,93765.13
2023-01-11T18:54:51.449Z,93767.66
2023-01-11T18:57:19.001Z,93768.47
2023-01-11T18:59:47.082Z,93777.16
2023-01-11T19:04:46.426Z,93779.69
2023-01-11T19:07:14.030Z,93775.78
2023-01-11T19:09:41.434Z,93779.34
2023-01-11T19:12:08.678Z,93780.72
2023-01-11T19:14:36.044Z,93780.59
2023-01-11T19:17:04.980Z,93775.97
2023-01-11T19:19:32.188Z,93784.78
2023-01-11T19:22:01.971Z,93786.63
2023-01-11T19:24:29.330Z,93783.03
2023-01-11T19:26:56.485Z,93797.25
2023-01-11T19:29:26.223Z,93799.44
2023-01-11T19:31:55.813Z,93809.59
2023-01-11T19:34:23.501Z,93810.16
2023-01-11T19:36:51.577Z,93806.69
2023-01-11T19:39:18.733Z,93810.97
2023-01-11T19:41:54.800Z,93811.91
2023-01-11T19:44:24.286Z,93816.19
2023-01-11T19:46:57.043Z,93815.13
2023-01-11T19:49:36.895Z,93824.81
2023-01-11T19:52:04.468Z,93822.84
2023-01-11T19:54:31.575Z,93834.66
2023-01-11T19:56:58.967Z,93825.97
2023-01-11T19:59:26.074Z,93820.78
2023-01-11T20:01:53.139Z,93822.50
2023-01-11T20:04:21.236Z,93820.16
2023-01-11T20:06:52.204Z,93820.31
2023-01-11T20:09:19.761Z,93828.25
2023-01-11T20:11:49.490Z,93825.97
2023-01-11T20:14:16.967Z,93821.78
2023-01-11T20:16:44.105Z,93817.97
2023-01-11T20:19:11.182Z,93819.94
2023-01-11T20:21:39.509Z,93823.00
2023-01-11T20:24:06.749Z,93824.53
2023-01-11T20:26:36.666Z,93826.25
2023-01-11T20:29:05.804Z,93820.16
2023-01-11T20:31:35.251Z,93819.03
2023-01-11T20:34:06.954Z,93824.44
2023-01-11T20:36:33.871Z,93823.69
2023-01-11T20:39:00.767Z,93818.41
2023-01-11T20:41:46.771Z,93822.66
2023-01-11T20:44:24.270Z,93818.06
2023-01-11T20:46:52.419Z,93819.13
2023-01-11T20:49:23.173Z,93820.50
2023-01-11T20:51:50.523Z,93820.78
2023-01-11T20:54:18.804Z,93812.78
2023-01-11T20:56:48.681Z,93822.38
2023-01-11T20:59:19.228Z,93824.63
2023-01-11T21:01:50.469Z,93815.19
2023-01-11T21:04:18.774Z,93823.03
2023-01-11T21:06:48.457Z,93820.31
2023-01-11T21:09:17.249Z,93818.22
2023-01-11T21:11:44.491Z,93825.13
2023-01-11T21:14:14.264Z,93819.59
2023-01-11T21:16:42.109Z,93816.00
2023-01-11T21:19:11.608Z,93823.75
2023-01-11T21:21:38.742Z,93821.22
2023-01-11T21:24:06.290Z,93816.75
2023-01-11T21:26:35.044Z,93813.03
2023-01-11T21:29:04.883Z,93803.91
2023-01-11T21:31:36.664Z,93798.97
2023-01-11T21:34:04.691Z,93805.19
2023-01-11T21:36:34.941Z,93806.13
2023-01-11T21:39:02.867Z,93804.16
2023-01-11T21:41:50.613Z,93805.78
2023-01-11T21:44:19.134Z,93807.16
2023-01-11T21:46:46.750Z,93804.63
2023-01-11T21:49:14.788Z,93806.47
2023-01-11T21:51:42.413Z,93807.97
2023-01-11T21:54:14.492Z,93808.44
2023-01-11T21:56:44.174Z,93805.91
2023-01-11T21:59:14.294Z,93811.19
2023-01-11T22:01:43.997Z,93814.09
2023-01-11T22:04:13.672Z,93813.16
2023-01-11T22:06:43.112Z,93815.81
2023-01-11T22:09:11.768Z,93817.41
2023-01-11T22:11:39.259Z,93815.81
2023-01-11T22:14:08.640Z,93811.41
2023-01-11T22:16:37.096Z,93819.16
2023-01-11T22:19:06.820Z,93815.00
2023-01-11T22:21:34.229Z,93799.78
2023-01-11T22:24:05.047Z,93801.25
2023-01-11T22:26:33.747Z,93800.91
2023-01-11T22:29:12.904Z,93795.97
2023-01-11T22:32:01.046Z,93790.75
2023-01-11T22:34:28.579Z,93793.63
2023-01-11T22:36:55.664Z,93788.44
2023-01-11T22:39:24.240Z,93787.53
2023-01-11T22:41:51.641Z,93786.59
2023-01-11T22:44:19.079Z,93781.28
2023-01-11T22:46:48.887Z,93777.03
2023-01-11T22:49:17.556Z,93781.84
2023-01-11T22:51:44.742Z,93787.88
2023-01-11T22:54:12.166Z,93790.28
2023-01-11T22:56:39.521Z,93774.25
2023-01-11T22:59:06.856Z,93780.03
2023-01-11T23:01:36.055Z,93779.56
2023-01-11T23:04:03.438Z,93783.59
2023-01-11T23:06:38.693Z,93784.75
2023-01-11T23:09:07.959Z,93789.25
2023-01-11T23:11:58.153Z,93779.44
2023-01-11T23:14:30.484Z,93780.94
2023-01-11T23:17:00.777Z,93786.09
2023-01-11T23:19:27.709Z,93787.47
2023-01-11T23:21:54.931Z,93785.94
2023-01-11T23:24:22.305Z,93782.69
2023-01-11T23:26:49.238Z,93778.50
2023-01-11T23:29:16.499Z,93778.69
2023-01-11T23:31:43.684Z,93776.63
2023-01-11T23:34:12.123Z,93775.56
2023-01-11T23:36:41.672Z,93772.94
2023-01-11T23:39:14.778Z,93770.59
2023-01-11T23:42:00.671Z,93780.16
2023-01-11T23:44:27.868Z,93784.75
2023-01-11T23:47:13.243Z,93767.69
2023-01-11T23:49:40.976Z,93783.59
2023-01-11T23:52:07.833Z,93786.53
2023-01-11T23:54:35.085Z,93787.22
2023-01-11T23:57:02.839Z,93784.78
2023-01-11T23:59:30.577Z,93794.34
